Walker, Iowa
Current Conditions -  °F | °C
As of 2:15 PM on Friday 31 Oct 2014 (Local Time) from KVTI Reporting Station
Clear Clear  
Wind Chill: 35°   Ceiling: Unl
Heat Index: 42°   Visibility: 10mi
Dew Point: 18°   Wind: 16mph
Humidity: 38%   Direction: 10°N
Pressure: 30.42"   Gusts: 26mph
Location:  42.29°N, 91.78°W
Report Text: KVTI 311915Z AUTO 01014G23KT 340V040 10SM CLR 06/M08 A3042 RMK AO2 T00581076
Loading
Personal Weather Stations






























Interactive Weather Map New forecast layout! Learn more

10-Day Weather Forecast

Advertisements
Track Severe Weather on mobile